TimeEST,TemperatureF,Dew PointF,Humidity,Sea Level PressureIn,VisibilityMPH,Wind Direction,Wind SpeedMPH,Gust SpeedMPH,PrecipitationIn,Events,Conditions,WindDirDegrees,DateUTC
12:53 AM,39.9,23.0,51,30.23,10.0,Calm,Calm,-,N/A,,Clear,0,2012-11-22 05:53:00
1:53 AM,37.0,23.0,57,30.23,10.0,South,3.5,-,N/A,,Clear,170,2012-11-22 06:53:00
2:53 AM,36.0,26.1,67,30.24,10.0,Calm,Calm,-,N/A,,Clear,0,2012-11-22 07:53:00
3:53 AM,35.1,24.1,64,30.24,10.0,Calm,Calm,-,N/A,,Clear,0,2012-11-22 08:53:00
4:53 AM,35.1,25.0,67,30.25,10.0,Calm,Calm,-,N/A,,Clear,0,2012-11-22 09:53:00
5:53 AM,34.0,25.0,70,30.25,10.0,Calm,Calm,-,N/A,,Clear,0,2012-11-22 10:53:00
6:53 AM,34.0,24.1,67,30.26,10.0,Calm,Calm,-,N/A,,Clear,0,2012-11-22 11:53:00
7:53 AM,32.0,24.1,73,30.27,10.0,SSE,3.5,-,N/A,,Clear,160,2012-11-22 12:53:00
8:53 AM,39.9,30.0,68,30.26,10.0,Calm,Calm,-,N/A,,Clear,0,2012-11-22 13:53:00
9:53 AM,46.9,28.9,50,30.25,10.0,South,5.8,-,N/A,,Clear,190,2012-11-22 14:53:00
10:53 AM,52.0,28.9,41,30.24,10.0,South,4.6,-,N/A,,Clear,190,2012-11-22 15:53:00
11:53 AM,57.0,27.0,32,30.21,10.0,South,6.9,-,N/A,,Clear,170,2012-11-22 16:53:00
12:53 PM,57.9,32.0,37,30.19,10.0,SSW,9.2,-,N/A,,Clear,200,2012-11-22 17:53:00
1:53 PM,60.1,34.0,38,30.17,10.0,SSW,6.9,-,N/A,,Clear,200,2012-11-22 18:53:00
2:53 PM,59.0,34.0,39,30.15,10.0,South,8.1,-,N/A,,Clear,180,2012-11-22 19:53:00
3:53 PM,59.0,34.0,39,30.14,10.0,South,8.1,-,N/A,,Clear,180,2012-11-22 20:53:00
4:53 PM,55.0,33.1,43,30.14,10.0,SSW,5.8,-,N/A,,Clear,200,2012-11-22 21:53:00
5:53 PM,54.0,33.1,45,30.14,10.0,South,6.9,-,N/A,,Clear,180,2012-11-22 22:53:00
6:53 PM,53.1,33.1,47,30.13,10.0,South,8.1,-,N/A,,Clear,180,2012-11-22 23:53:00
7:53 PM,52.0,32.0,47,30.11,10.0,SSE,9.2,-,N/A,,Clear,160,2012-11-23 00:53:00
8:53 PM,52.0,30.9,45,30.09,10.0,SSE,10.4,-,N/A,,Clear,160,2012-11-23 01:53:00
9:53 PM,51.1,30.0,44,30.07,10.0,SSE,8.1,-,N/A,,Clear,160,2012-11-23 02:53:00
10:53 PM,50.0,28.9,44,30.05,10.0,South,8.1,-,N/A,,Clear,180,2012-11-23 03:53:00
11:53 PM,48.9,28.9,46,30.04,10.0,South,5.8,-,N/A,,Clear,190,2012-11-23 04:53:00